createdAt,value
2019-04-05T00:01:16.806Z,44.30
2019-04-05T00:03:45.376Z,44.30
2019-04-05T00:06:13.992Z,43.90
2019-04-05T00:08:42.560Z,44.60
2019-04-05T00:11:11.099Z,44.00
2019-04-05T00:13:39.724Z,43.80
2019-04-05T00:16:10.102Z,43.80
2019-04-05T00:18:38.634Z,44.50
2019-04-05T00:21:07.791Z,43.80
2019-04-05T00:23:36.292Z,43.80
2019-04-05T00:26:05.363Z,43.10
2019-04-05T00:28:33.978Z,43.60
2019-04-05T00:31:02.539Z,43.70
2019-04-05T00:33:31.109Z,43.80
2019-04-05T00:35:59.720Z,43.80
2019-04-05T00:38:28.259Z,43.70
2019-04-05T00:40:56.849Z,43.50
2019-04-05T00:43:25.436Z,43.50
2019-04-05T00:45:53.971Z,43.40
2019-04-05T00:48:22.616Z,43.40
2019-04-05T00:50:51.238Z,44.00
2019-04-05T00:53:20.051Z,43.40
2019-04-05T00:55:49.056Z,43.30
2019-04-05T00:58:17.671Z,43.50
2019-04-05T01:00:46.357Z,42.90
2019-04-05T01:03:14.964Z,43.00
2019-04-05T01:05:43.539Z,43.00
2019-04-05T01:08:12.184Z,43.10
2019-04-05T01:10:40.829Z,43.10
2019-04-05T01:13:09.917Z,43.10
2019-04-05T01:15:41.150Z,43.10
2019-04-05T01:18:08.679Z,43.10
2019-04-05T01:20:40.220Z,43.10
2019-04-05T01:23:11.504Z,43.10
2019-04-05T01:25:41.181Z,43.20
2019-04-05T01:28:10.912Z,43.30
2019-04-05T01:30:39.488Z,43.10
2019-04-05T01:33:08.065Z,43.10
2019-04-05T01:35:36.672Z,43.30
2019-04-05T01:38:05.488Z,43.60
2019-04-05T01:40:36.442Z,43.60
2019-04-05T01:43:06.755Z,43.30
2019-04-05T01:45:35.624Z,43.90
2019-04-05T01:48:04.364Z,44.20
2019-04-05T01:50:33.371Z,44.20
2019-04-05T01:53:02.396Z,44.30
2019-04-05T01:55:30.971Z,44.20
2019-04-05T01:57:59.551Z,44.40
2019-04-05T02:00:28.057Z,44.50
2019-04-05T02:02:56.967Z,44.60
2019-04-05T02:05:25.575Z,44.70
2019-04-05T02:07:54.293Z,45.00
2019-04-05T02:10:22.895Z,45.10
2019-04-05T02:12:51.464Z,45.10
2019-04-05T02:15:25.680Z,45.00
2019-04-05T02:17:54.540Z,45.10
2019-04-05T02:20:23.251Z,45.30
2019-04-05T02:22:52.339Z,46.00
2019-04-05T02:25:20.973Z,45.60
2019-04-05T02:27:49.606Z,45.60
2019-04-05T02:30:19.281Z,45.90
2019-04-05T02:32:47.963Z,45.90
2019-04-05T02:35:16.602Z,46.50
2019-04-05T02:37:45.233Z,45.90
2019-04-05T02:40:16.552Z,46.00
2019-04-05T02:42:47.655Z,46.00
2019-04-05T02:45:18.812Z,45.90
2019-04-05T02:47:51.842Z,45.90
2019-04-05T02:50:23.234Z,45.80
2019-04-05T02:52:54.734Z,45.90
2019-04-05T02:55:25.748Z,46.00
2019-04-05T02:57:55.095Z,46.20
2019-04-05T03:00:23.768Z,46.40
2019-04-05T03:02:52.956Z,46.30
2019-04-05T03:05:23.369Z,46.40
2019-04-05T03:07:52.333Z,46.50
2019-04-05T03:10:55.825Z,46.80
2019-04-05T03:13:30.418Z,46.90
2019-04-05T03:16:02.001Z,47.10
2019-04-05T03:18:32.508Z,47.00
2019-04-05T03:21:04.160Z,47.10
2019-04-05T03:23:35.805Z,47.20
2019-04-05T03:26:07.199Z,47.10
2019-04-05T03:28:38.409Z,47.10
2019-04-05T03:31:07.308Z,47.40
2019-04-05T03:33:35.938Z,47.30
2019-04-05T03:36:05.065Z,47.30
2019-04-05T03:38:33.706Z,47.20
2019-04-05T03:41:02.448Z,47.20
2019-04-05T03:43:31.158Z,47.30
2019-04-05T03:46:00.036Z,47.50
2019-04-05T03:48:28.888Z,47.50
2019-04-05T03:50:58.361Z,47.50
2019-04-05T03:53:27.680Z,47.40
2019-04-05T03:55:56.395Z,47.50
2019-04-05T03:58:25.047Z,47.50
2019-04-05T04:00:54.328Z,47.60
2019-04-05T04:03:22.869Z,47.60
2019-04-05T04:05:51.557Z,47.70
2019-04-05T04:08:23.280Z,47.90
2019-04-05T04:10:52.298Z,47.80
2019-04-05T04:13:21.026Z,48.00
2019-04-05T04:15:50.814Z,47.90
2019-04-05T04:18:21.006Z,48.00
2019-04-05T04:20:51.892Z,47.70
2019-04-05T04:23:23.549Z,47.80
2019-04-05T04:25:53.563Z,47.60
2019-04-05T04:28:22.894Z,47.80
2019-04-05T04:30:52.951Z,47.70
2019-04-05T04:33:21.497Z,47.60
2019-04-05T04:35:51.122Z,47.50
2019-04-05T04:38:20.213Z,47.70
2019-04-05T04:40:48.898Z,47.70
2019-04-05T04:43:17.845Z,47.80
2019-04-05T04:45:46.844Z,47.70
2019-04-05T04:48:17.030Z,47.80
2019-04-05T04:50:46.076Z,47.80
2019-04-05T04:53:15.864Z,47.80
2019-04-05T04:55:44.869Z,47.80
2019-04-05T04:58:13.545Z,47.80
2019-04-05T05:00:42.767Z,47.80
2019-04-05T05:03:11.614Z,47.90
2019-04-05T05:05:40.588Z,47.70
2019-04-05T05:08:09.890Z,47.90
2019-04-05T05:10:38.529Z,48.20
2019-04-05T05:13:07.473Z,50.10
2019-04-05T05:15:36.400Z,50.70
2019-04-05T05:18:05.819Z,51.50
2019-04-05T05:20:34.880Z,51.00
2019-04-05T05:23:03.608Z,50.70
2019-04-05T05:25:32.391Z,50.90
2019-04-05T05:28:01.438Z,50.80
2019-04-05T05:30:30.889Z,52.10
2019-04-05T05:32:59.708Z,54.50
2019-04-05T05:35:28.373Z,55.90
2019-04-05T05:37:57.338Z,55.10
2019-04-05T05:40:34.610Z,55.10
2019-04-05T05:42:56.639Z,55.90
2019-04-05T05:45:25.188Z,56.00
2019-04-05T05:47:53.800Z,55.20
2019-04-05T05:50:22.395Z,55.40
2019-04-05T05:52:51.044Z,56.00
2019-04-05T05:55:19.666Z,55.10
2019-04-05T05:57:48.277Z,55.60
2019-04-05T06:00:19.393Z,56.80
2019-04-05T06:02:48.595Z,56.00
2019-04-05T06:05:17.390Z,55.50
2019-04-05T06:07:45.936Z,54.70
2019-04-05T06:10:15.056Z,54.90
2019-04-05T06:12:43.679Z,52.80
2019-04-05T06:15:12.546Z,54.00
2019-04-05T06:17:41.081Z,53.30
2019-04-05T06:20:10.768Z,52.30
2019-04-05T06:22:39.345Z,52.90
2019-04-05T06:25:09.092Z,51.60
2019-04-05T06:27:37.701Z,51.60
2019-04-05T06:30:09.553Z,51.40
2019-04-05T06:32:38.121Z,51.20
2019-04-05T06:35:08.336Z,50.90
2019-04-05T06:37:36.893Z,51.30
2019-04-05T06:40:07.305Z,52.10
2019-04-05T06:42:35.908Z,51.90
2019-04-05T06:45:05.271Z,52.80
2019-04-05T06:47:33.837Z,51.80
2019-04-05T06:50:02.428Z,52.50
2019-04-05T06:52:30.961Z,52.60
2019-04-05T06:54:59.507Z,52.50
2019-04-05T06:57:28.427Z,52.80
2019-04-05T06:59:57.025Z,52.00
2019-04-05T07:02:25.593Z,52.00
2019-04-05T07:04:54.166Z,50.70
2019-04-05T07:07:22.715Z,48.50
2019-04-05T07:09:51.217Z,46.80
2019-04-05T07:12:20.701Z,46.50
2019-04-05T07:14:49.615Z,46.50
2019-04-05T07:17:18.256Z,46.30
2019-04-05T07:19:46.768Z,46.30
2019-04-05T07:22:15.275Z,46.40
2019-04-05T07:24:43.916Z,45.20
2019-04-05T07:27:12.491Z,44.90
2019-04-05T07:29:41.045Z,44.90
2019-04-05T07:32:10.577Z,45.90
2019-04-05T07:34:39.148Z,45.70
2019-04-05T07:37:07.728Z,45.00
2019-04-05T07:39:36.280Z,44.20
2019-04-05T07:42:04.947Z,43.60
2019-04-05T07:44:33.520Z,42.00
2019-04-05T07:47:02.059Z,39.50
2019-04-05T07:49:30.686Z,38.10
2019-04-05T07:51:59.274Z,35.50
2019-04-05T07:54:27.845Z,32.90
2019-04-05T07:56:56.469Z,30.90
2019-04-05T07:59:25.002Z,29.20
2019-04-05T08:01:53.553Z,28.90
2019-04-05T08:04:22.123Z,28.40
2019-04-05T08:06:51.103Z,26.50
2019-04-05T08:09:20.121Z,24.90
2019-04-05T08:11:49.444Z,23.10
2019-04-05T08:14:18.903Z,22.80
2019-04-05T08:16:47.496Z,22.10
2019-04-05T08:19:16.103Z,21.50
2019-04-05T08:21:44.692Z,21.20
2019-04-05T08:24:13.257Z,21.80
2019-04-05T08:26:41.883Z,21.40
2019-04-05T08:29:10.438Z,21.10
2019-04-05T08:31:38.976Z,21.50
2019-04-05T08:34:07.592Z,22.20
2019-04-05T08:36:36.141Z,22.40
2019-04-05T08:39:07.413Z,23.30
2019-04-05T08:41:36.029Z,24.00
2019-04-05T08:44:05.424Z,25.40
2019-04-05T08:46:34.662Z,26.10
2019-04-05T08:49:10.725Z,24.80
2019-04-05T08:51:33.695Z,23.30
2019-04-05T08:54:02.271Z,23.10
2019-04-05T08:56:30.932Z,22.20
2019-04-05T08:58:59.568Z,22.50
2019-04-05T09:01:28.142Z,23.10
2019-04-05T09:03:56.718Z,23.70
2019-04-05T09:06:25.280Z,24.80
2019-04-05T09:08:53.837Z,25.60
2019-04-05T09:11:23.303Z,26.50
2019-04-05T09:13:51.775Z,26.40
2019-04-05T09:16:20.360Z,26.50
2019-04-05T09:18:49.627Z,26.10
2019-04-05T09:21:18.317Z,25.30
2019-04-05T09:23:46.860Z,24.80
2019-04-05T09:26:15.514Z,24.90
2019-04-05T09:28:44.102Z,26.10
2019-04-05T09:31:12.747Z,27.50
2019-04-05T09:33:41.316Z,27.70
2019-04-05T09:36:09.796Z,26.10
2019-04-05T09:38:38.344Z,24.40
2019-04-05T09:41:06.860Z,23.90
2019-04-05T09:43:35.407Z,22.90
2019-04-05T09:46:04.300Z,22.60
2019-04-05T09:48:32.844Z,23.40
2019-04-05T09:51:01.635Z,24.90
2019-04-05T09:53:30.308Z,26.50
2019-04-05T09:55:58.930Z,27.20
2019-04-05T09:58:27.469Z,27.50
2019-04-05T10:00:56.024Z,27.00
2019-04-05T10:03:24.897Z,26.30
2019-04-05T10:05:53.573Z,26.90
2019-04-05T10:08:22.145Z,27.30
2019-04-05T10:10:51.389Z,26.20
2019-04-05T10:13:20.042Z,25.90
2019-04-05T10:15:48.656Z,25.60
2019-04-05T10:18:17.405Z,25.50
2019-04-05T10:20:45.949Z,26.20
2019-04-05T10:23:14.594Z,26.80
2019-04-05T10:25:44.112Z,25.20
2019-04-05T10:28:12.956Z,23.70
2019-04-05T10:30:41.565Z,22.20
2019-04-05T10:33:10.148Z,20.80
2019-04-05T10:35:38.794Z,20.10
2019-04-05T10:38:07.436Z,20.10
2019-04-05T10:40:36.060Z,20.10
2019-04-05T10:43:04.956Z,19.90
2019-04-05T10:45:33.568Z,19.40
2019-04-05T10:48:02.244Z,19.20
2019-04-05T10:50:31.309Z,18.00
2019-04-05T10:52:59.863Z,18.00
2019-04-05T10:55:28.426Z,18.80
2019-04-05T10:57:57.000Z,19.30
2019-04-05T11:00:26.509Z,19.20
2019-04-05T11:02:55.425Z,18.80
2019-04-05T11:05:23.951Z,18.60
2019-04-05T11:07:52.495Z,18.80
2019-04-05T11:10:21.178Z,19.40
2019-04-05T11:12:50.283Z,20.00
2019-04-05T11:15:20.277Z,20.40
2019-04-05T11:17:48.851Z,20.80
2019-04-05T11:20:21.935Z,20.90
2019-04-05T11:22:50.278Z,21.40
2019-04-05T11:25:20.899Z,22.40
2019-04-05T11:27:49.840Z,22.40
2019-04-05T11:30:21.469Z,21.80
2019-04-05T11:32:50.061Z,21.20
2019-04-05T11:35:19.177Z,20.70
2019-04-05T11:37:50.673Z,21.10
2019-04-05T11:40:18.619Z,21.00
2019-04-05T11:42:48.304Z,21.00
2019-04-05T11:45:18.493Z,21.60
2019-04-05T11:47:47.768Z,20.80
2019-04-05T11:50:16.881Z,21.70
2019-04-05T11:52:45.495Z,22.20
2019-04-05T11:55:14.359Z,23.10
2019-04-05T11:57:42.872Z,23.00
2019-04-05T12:00:16.620Z,23.00
2019-04-05T12:02:49.342Z,23.50
2019-04-05T12:05:20.248Z,23.20
2019-04-05T12:07:48.493Z,23.70
2019-04-05T12:10:19.466Z,23.20
2019-04-05T12:12:47.939Z,24.00
2019-04-05T12:15:16.635Z,24.70
2019-04-05T12:17:45.248Z,25.00
2019-04-05T12:20:14.568Z,25.10
2019-04-05T12:22:43.221Z,24.50
2019-04-05T12:25:12.195Z,24.50
2019-04-05T12:27:40.764Z,25.70
2019-04-05T12:30:12.039Z,26.70
2019-04-05T12:32:41.563Z,27.00
2019-04-05T12:35:11.272Z,27.10
2019-04-05T12:37:49.493Z,27.40
2019-04-05T12:40:11.245Z,27.90
2019-04-05T12:42:43.509Z,28.10
2019-04-05T12:45:14.664Z,27.40
2019-04-05T12:47:45.332Z,26.80
2019-04-05T12:50:14.635Z,27.40
2019-04-05T12:52:43.023Z,27.90
2019-04-05T12:55:12.359Z,28.20
2019-04-05T12:57:40.864Z,28.80
2019-04-05T13:00:15.273Z,28.20
2019-04-05T13:02:44.391Z,28.30
2019-04-05T13:05:13.307Z,27.40
2019-04-05T13:07:41.859Z,27.60
2019-04-05T13:10:11.197Z,28.00
2019-04-05T13:12:39.758Z,28.10
2019-04-05T13:15:12.920Z,28.10
2019-04-05T13:17:39.384Z,28.40
2019-04-05T13:20:07.987Z,28.70
2019-04-05T13:22:36.630Z,29.00
2019-04-05T13:25:10.764Z,29.30
2019-04-05T13:27:41.086Z,29.60
2019-04-05T13:30:08.249Z,29.50
2019-04-05T13:32:36.849Z,29.40
2019-04-05T13:35:06.973Z,29.50
2019-04-05T13:37:35.545Z,29.60
2019-04-05T13:40:06.613Z,29.90
2019-04-05T13:42:35.673Z,30.00
2019-04-05T13:45:07.832Z,29.80
2019-04-05T13:47:38.956Z,30.50
2019-04-05T13:50:10.924Z,30.80
2019-04-05T13:52:41.459Z,30.30
2019-04-05T13:55:11.233Z,30.50
2019-04-05T13:57:40.872Z,30.50
2019-04-05T14:00:10.576Z,30.50
2019-04-05T14:02:40.692Z,31.00
2019-04-05T14:05:09.670Z,31.20
2019-04-05T14:07:38.208Z,31.30
2019-04-05T14:10:10.490Z,30.80
2019-04-05T14:12:40.226Z,31.00
2019-04-05T14:15:11.444Z,31.50
2019-04-05T14:17:39.167Z,32.30
2019-04-05T14:20:09.315Z,32.60
2019-04-05T14:22:38.059Z,33.10
2019-04-05T14:25:08.045Z,33.50
2019-04-05T14:27:36.843Z,34.30
2019-04-05T14:30:08.988Z,34.70
2019-04-05T14:32:37.598Z,34.70
2019-04-05T14:35:08.407Z,34.90
2019-04-05T14:37:37.258Z,34.80
2019-04-05T14:40:08.428Z,34.50
2019-04-05T14:42:37.352Z,34.70
2019-04-05T14:45:08.438Z,34.30
2019-04-05T14:47:37.058Z,34.10
2019-04-05T14:50:07.236Z,33.90
2019-04-05T14:52:36.114Z,33.80
2019-04-05T14:55:05.788Z,34.00
2019-04-05T14:57:35.499Z,34.00
2019-04-05T15:00:08.090Z,34.00
2019-04-05T15:02:37.043Z,34.00
2019-04-05T15:05:07.373Z,33.90
2019-04-05T15:07:37.744Z,34.30
2019-04-05T15:10:07.821Z,34.50
2019-04-05T15:12:36.412Z,34.90
2019-04-05T15:15:08.853Z,35.20
2019-04-05T15:17:48.019Z,35.40
2019-04-05T15:20:08.985Z,35.60
2019-04-05T15:22:39.503Z,35.60
2019-04-05T15:25:08.678Z,35.60
2019-04-05T15:27:37.289Z,35.60
2019-04-05T15:30:08.237Z,35.80
2019-04-05T15:32:37.555Z,35.80
2019-04-05T15:35:08.133Z,36.10
2019-04-05T15:37:37.741Z,36.30
2019-04-05T15:40:08.274Z,36.60
2019-04-05T15:42:36.875Z,36.10
2019-04-05T15:45:08.420Z,35.90
2019-04-05T15:47:37.714Z,36.10
2019-04-05T15:50:08.171Z,36.00
2019-04-05T15:52:36.727Z,36.10
2019-04-05T15:55:07.670Z,36.30
2019-04-05T15:57:39.216Z,36.50
2019-04-05T16:00:11.044Z,37.00
2019-04-05T16:02:39.609Z,37.30
2019-04-05T16:05:09.317Z,37.60
2019-04-05T16:07:38.093Z,38.00
2019-04-05T16:10:11.203Z,38.30
2019-04-05T16:12:40.126Z,38.80
2019-04-05T16:15:09.594Z,39.10
2019-04-05T16:17:38.500Z,39.40
2019-04-05T16:20:11.595Z,39.70
2019-04-05T16:22:40.179Z,39.90
2019-04-05T16:25:10.721Z,40.10
2019-04-05T16:27:39.886Z,40.30
2019-04-05T16:30:08.888Z,40.70
2019-04-05T16:32:37.466Z,40.70
2019-04-05T16:35:07.352Z,41.10
2019-04-05T16:37:36.370Z,41.20
2019-04-05T16:40:08.699Z,41.70
2019-04-05T16:42:37.237Z,41.90
2019-04-05T16:45:10.386Z,42.10
2019-04-05T16:47:38.859Z,42.10
2019-04-05T16:50:08.382Z,42.30
2019-04-05T16:52:44.749Z,42.50
2019-04-05T16:55:07.899Z,42.40
2019-04-05T16:57:36.550Z,42.60
2019-04-05T17:00:11.497Z,43.10
2019-04-05T17:02:40.022Z,43.00
2019-04-05T17:05:09.406Z,43.30
2019-04-05T17:07:37.927Z,43.70
2019-04-05T17:10:07.046Z,44.00
2019-04-05T17:12:35.649Z,44.30
2019-04-05T17:15:06.647Z,44.70
2019-04-05T17:17:35.222Z,45.00
2019-04-05T17:20:05.245Z,45.00
2019-04-05T17:22:33.846Z,45.30
2019-04-05T17:25:04.414Z,45.50
2019-04-05T17:27:32.640Z,45.40
2019-04-05T17:30:01.212Z,45.80
2019-04-05T17:32:29.957Z,46.40
2019-04-05T17:34:58.504Z,46.00
2019-04-05T17:37:27.115Z,46.40
2019-04-05T17:39:55.656Z,46.80
2019-04-05T17:42:24.241Z,47.10
2019-04-05T17:44:52.860Z,47.40
2019-04-05T17:47:21.444Z,47.70
2019-04-05T17:49:50.033Z,47.90
2019-04-05T17:52:18.632Z,48.30
2019-04-05T17:54:47.200Z,48.40
2019-04-05T17:57:16.700Z,48.60
2019-04-05T17:59:45.344Z,48.70
2019-04-05T18:02:13.993Z,48.60
2019-04-05T18:04:42.547Z,48.70
2019-04-05T18:07:11.164Z,48.50
2019-04-05T18:09:39.673Z,48.50
2019-04-05T18:12:09.021Z,48.50
2019-04-05T18:14:37.667Z,48.50
2019-04-05T18:17:06.245Z,48.50
2019-04-05T18:19:36.328Z,48.40
2019-04-05T18:22:05.453Z,48.30
2019-04-05T18:24:34.092Z,48.10
2019-04-05T18:27:02.664Z,48.00
2019-04-05T18:29:31.702Z,48.00
2019-04-05T18:32:00.268Z,48.10
2019-04-05T18:34:28.855Z,47.90
2019-04-05T18:36:57.470Z,48.00
2019-04-05T18:39:26.109Z,48.20
2019-04-05T18:41:54.762Z,48.30
2019-04-05T18:44:23.382Z,48.60
2019-04-05T18:46:51.956Z,48.80
2019-04-05T18:49:20.497Z,49.60
2019-04-05T18:51:49.088Z,48.70
2019-04-05T18:54:17.867Z,48.80
2019-04-05T18:56:46.442Z,48.50
2019-04-05T18:59:15.088Z,48.50
2019-04-05T19:01:43.671Z,48.60
2019-04-05T19:04:12.246Z,48.40
2019-04-05T19:06:40.828Z,48.40
2019-04-05T19:09:11.834Z,48.40
2019-04-05T19:11:39.780Z,48.40
2019-04-05T19:14:08.464Z,48.20
2019-04-05T19:16:36.972Z,48.30
2019-04-05T19:19:05.586Z,48.00
2019-04-05T19:21:34.263Z,47.90
2019-04-05T19:24:02.830Z,48.00
2019-04-05T19:26:31.372Z,48.00
2019-04-05T19:29:00.261Z,48.00
2019-04-05T19:49:00.757Z,48.40
2019-04-05T19:51:29.355Z,48.20
2019-04-05T19:54:01.315Z,48.40
2019-04-05T19:56:28.206Z,48.20
2019-04-05T19:58:56.792Z,48.40
2019-04-05T20:01:25.367Z,48.20
2019-04-05T20:03:53.909Z,48.20
2019-04-05T20:06:22.551Z,48.40
2019-04-05T20:08:51.159Z,48.60
2019-04-05T20:11:19.820Z,48.50
2019-04-05T20:13:48.398Z,48.70
2019-04-05T20:16:16.917Z,48.40
2019-04-05T20:18:45.458Z,48.60
2019-04-05T20:21:14.030Z,48.70
2019-04-05T20:23:47.628Z,48.70
2019-04-05T20:26:13.379Z,49.00
2019-04-05T20:28:41.966Z,49.10
2019-04-05T20:31:10.456Z,49.10
2019-04-05T20:33:39.045Z,49.10
2019-04-05T20:36:07.659Z,49.20
2019-04-05T20:38:36.210Z,49.40
2019-04-05T20:41:04.856Z,49.70
2019-04-05T20:43:33.460Z,49.60
2019-04-05T20:46:02.010Z,50.00
2019-04-05T20:48:30.583Z,50.00
2019-04-05T20:50:59.180Z,50.00
2019-04-05T20:53:27.763Z,50.00
2019-04-05T20:55:56.288Z,50.00
2019-04-05T20:58:24.835Z,50.10
2019-04-05T21:00:53.427Z,50.30
2019-04-05T21:03:21.895Z,50.50
2019-04-05T21:05:50.434Z,50.70
2019-04-05T21:08:19.022Z,50.80
2019-04-05T21:10:47.563Z,50.80
2019-04-05T21:13:16.120Z,51.00
2019-04-05T21:15:44.694Z,51.20
2019-04-05T21:18:13.261Z,51.40
2019-04-05T21:20:41.903Z,51.30
2019-04-05T21:23:10.402Z,51.40
2019-04-05T21:25:38.909Z,51.60
2019-04-05T21:28:07.519Z,51.60
2019-04-05T21:30:36.043Z,51.80
2019-04-05T21:33:05.162Z,51.70
2019-04-05T21:35:33.951Z,51.80
2019-04-05T21:38:02.501Z,52.00
2019-04-05T21:40:31.048Z,52.00
2019-04-05T21:42:59.688Z,52.20
2019-04-05T21:45:28.342Z,52.30
2019-04-05T21:47:56.879Z,52.30
2019-04-05T21:50:25.487Z,52.60
2019-04-05T21:52:54.018Z,52.60
2019-04-05T21:55:22.600Z,52.60
2019-04-05T21:57:51.247Z,52.80
2019-04-05T22:00:28.650Z,52.90
2019-04-05T22:02:57.266Z,52.90
2019-04-05T22:05:25.908Z,53.00
2019-04-05T22:07:54.466Z,53.00
2019-04-05T22:10:23.050Z,53.30
2019-04-05T22:12:51.606Z,53.50
2019-04-05T22:15:20.186Z,53.60
2019-04-05T22:17:48.799Z,53.80
2019-04-05T22:20:17.381Z,53.80
2019-04-05T22:22:45.959Z,54.00
2019-04-05T22:25:15.522Z,54.20
2019-04-05T22:27:44.110Z,54.40
2019-04-05T22:30:13.107Z,55.40
2019-04-05T22:32:41.688Z,54.80
2019-04-05T22:35:10.287Z,55.00
2019-04-05T22:37:38.759Z,55.10
2019-04-05T22:40:07.567Z,55.20
2019-04-05T22:42:36.116Z,55.30
2019-04-05T22:45:06.887Z,55.40
2019-04-05T22:47:36.436Z,55.60
2019-04-05T22:50:06.441Z,55.70
2019-04-05T22:52:35.010Z,55.80
2019-04-05T22:55:11.008Z,56.10
2019-04-05T22:57:34.615Z,56.20
2019-04-05T23:00:03.659Z,56.50
2019-04-05T23:02:32.187Z,56.70
2019-04-05T23:05:01.046Z,57.00
2019-04-05T23:07:29.628Z,57.20
2019-04-05T23:09:58.923Z,57.40
2019-04-05T23:12:27.499Z,57.50
2019-04-05T23:14:56.036Z,57.70
2019-04-05T23:17:24.648Z,57.80
2019-04-05T23:19:53.222Z,58.00
2019-04-05T23:22:21.835Z,58.10
2019-04-05T23:24:50.410Z,58.30
2019-04-05T23:27:18.979Z,58.50
2019-04-05T23:29:47.545Z,58.80
2019-04-05T23:32:16.142Z,59.00
2019-04-05T23:34:44.690Z,59.00
2019-04-05T23:37:13.507Z,58.90
2019-04-05T23:39:42.125Z,59.20
2019-04-05T23:42:10.676Z,59.30
2019-04-05T23:44:39.269Z,59.50
2019-04-05T23:47:07.920Z,59.60
2019-04-05T23:49:36.484Z,59.70
2019-04-05T23:52:05.021Z,59.80
2019-04-05T23:54:33.648Z,59.90
2019-04-05T23:57:02.182Z,60.00
2019-04-05T23:59:30.763Z,60.20
